createdAt,value
2023-05-09T00:01:17.073Z,8.37
2023-05-09T00:03:44.950Z,9.30
2023-05-09T00:06:13.506Z,9.53
2023-05-09T00:08:41.675Z,9.57
2023-05-09T00:11:09.506Z,9.33
2023-05-09T00:13:37.520Z,6.37
2023-05-09T00:16:07.546Z,8.63
2023-05-09T00:18:38.303Z,9.70
2023-05-09T00:21:06.183Z,6.20
2023-05-09T00:23:34.025Z,10.63
2023-05-09T00:26:02.255Z,11.10
2023-05-09T00:28:30.190Z,8.73
2023-05-09T00:30:58.206Z,7.80
2023-05-09T00:33:27.717Z,7.93
2023-05-09T00:35:55.876Z,7.00
2023-05-09T00:38:24.065Z,11.73
2023-05-09T00:40:52.092Z,12.07
2023-05-09T00:43:20.034Z,7.73
2023-05-09T00:45:48.687Z,11.53
2023-05-09T00:48:17.230Z,8.73
2023-05-09T00:50:47.177Z,9.00
2023-05-09T00:53:15.510Z,11.33
2023-05-09T00:55:43.668Z,9.13
2023-05-09T00:58:12.240Z,11.33
2023-05-09T01:00:40.101Z,9.63
2023-05-09T01:03:08.538Z,8.77
2023-05-09T01:05:45.151Z,11.20
2023-05-09T01:08:22.922Z,9.20
2023-05-09T01:10:59.416Z,9.77
2023-05-09T01:13:33.513Z,9.10
2023-05-09T01:16:09.292Z,7.77
2023-05-09T01:18:44.559Z,8.87
2023-05-09T01:21:17.257Z,10.03
2023-05-09T01:24:30.555Z,9.23
2023-05-09T01:27:22.016Z,10.83
2023-05-09T01:29:54.380Z,10.17
2023-05-09T01:32:27.146Z,11.23
2023-05-09T01:35:00.708Z,13.60
2023-05-09T01:37:33.135Z,9.60
2023-05-09T01:40:08.395Z,10.03
2023-05-09T01:42:42.343Z,9.80
2023-05-09T01:45:15.137Z,11.23
2023-05-09T01:47:44.450Z,10.13
2023-05-09T01:50:13.870Z,8.73
2023-05-09T01:52:43.956Z,10.30
2023-05-09T01:55:13.446Z,9.60
2023-05-09T01:57:42.130Z,9.23
2023-05-09T02:00:15.137Z,9.50
2023-05-09T02:02:44.220Z,8.07
2023-05-09T02:05:13.429Z,9.13
2023-05-09T02:07:43.058Z,9.00
2023-05-09T02:10:12.465Z,9.43
2023-05-09T02:12:41.096Z,9.40
2023-05-09T02:15:11.559Z,9.10
2023-05-09T02:17:39.483Z,9.87
2023-05-09T02:20:09.890Z,8.57
2023-05-09T02:22:37.764Z,9.87
2023-05-09T02:25:07.430Z,9.63
2023-05-09T02:27:36.515Z,9.60
2023-05-09T02:30:07.467Z,8.00
2023-05-09T02:32:39.552Z,8.17
2023-05-09T02:35:10.450Z,9.50
2023-05-09T02:37:38.406Z,8.80
2023-05-09T02:40:09.585Z,8.83
2023-05-09T02:42:37.517Z,9.73
2023-05-09T02:45:07.936Z,10.40
2023-05-09T02:47:37.229Z,8.23
2023-05-09T02:50:05.755Z,7.50
2023-05-09T02:52:33.688Z,10.43
2023-05-09T02:55:01.637Z,7.90
2023-05-09T02:57:29.544Z,8.30
2023-05-09T02:59:57.353Z,7.87
2023-05-09T03:02:25.167Z,8.10
2023-05-09T03:04:54.410Z,9.07
2023-05-09T03:07:22.312Z,8.17
2023-05-09T03:09:50.197Z,5.53
2023-05-09T03:12:18.045Z,8.67
2023-05-09T03:14:45.822Z,10.10
2023-05-09T03:17:17.371Z,8.77
2023-05-09T03:19:45.330Z,9.17
2023-05-09T03:22:14.751Z,9.17
2023-05-09T03:24:42.607Z,8.10
2023-05-09T03:27:10.638Z,6.93
2023-05-09T03:29:38.774Z,8.23
2023-05-09T03:32:06.993Z,9.00
2023-05-09T03:34:34.903Z,7.23
2023-05-09T03:37:02.789Z,8.63
2023-05-09T03:39:31.969Z,8.87
2023-05-09T03:41:59.748Z,12.93
2023-05-09T03:44:27.725Z,13.03
2023-05-09T03:46:55.600Z,9.73
2023-05-09T03:49:23.550Z,8.53
2023-05-09T03:51:51.376Z,10.03
2023-05-09T03:54:19.650Z,9.73
2023-05-09T03:56:49.086Z,9.67
2023-05-09T03:59:19.200Z,7.83
2023-05-09T04:01:47.111Z,7.43
2023-05-09T04:04:15.194Z,8.00
2023-05-09T04:06:43.075Z,9.20
2023-05-09T04:09:10.981Z,10.13
2023-05-09T04:11:39.172Z,9.30
2023-05-09T04:14:08.529Z,7.63
2023-05-09T04:16:36.434Z,7.73
2023-05-09T04:19:04.479Z,10.47
2023-05-09T04:21:32.907Z,10.47
2023-05-09T04:24:00.809Z,6.23
2023-05-09T04:26:28.779Z,9.40
2023-05-09T04:28:56.768Z,9.50
2023-05-09T04:31:26.687Z,7.93
2023-05-09T04:33:54.637Z,10.37
2023-05-09T04:36:23.278Z,7.60
2023-05-09T04:38:51.287Z,9.57
2023-05-09T04:41:19.177Z,7.30
2023-05-09T04:43:47.003Z,9.97
2023-05-09T04:46:14.878Z,8.67
2023-05-09T04:48:44.195Z,12.03
2023-05-09T04:51:12.094Z,11.83
2023-05-09T04:53:40.047Z,9.40
2023-05-09T04:56:08.204Z,8.80
2023-05-09T04:58:38.524Z,9.97
2023-05-09T05:01:06.867Z,8.37
2023-05-09T05:03:35.090Z,10.23
2023-05-09T05:06:04.447Z,9.10
2023-05-09T05:08:32.279Z,6.90
2023-05-09T05:11:00.217Z,7.70
2023-05-09T05:13:28.319Z,11.00
2023-05-09T05:15:56.473Z,7.18
2023-05-09T05:18:24.441Z,6.80
2023-05-09T05:20:52.306Z,7.45
2023-05-09T05:23:21.504Z,10.52
2023-05-09T05:25:49.784Z,8.63
2023-05-09T05:28:17.687Z,9.10
2023-05-09T05:30:47.905Z,8.77
2023-05-09T05:33:15.704Z,7.50
2023-05-09T05:35:44.169Z,6.45
2023-05-09T05:38:14.462Z,8.30
2023-05-09T05:40:43.677Z,7.47
2023-05-09T05:43:11.581Z,6.90
2023-05-09T05:45:39.503Z,6.97
2023-05-09T05:48:07.540Z,7.45
2023-05-09T05:50:36.716Z,6.70
2023-05-09T05:53:04.613Z,5.30
2023-05-09T05:55:32.450Z,6.28
2023-05-09T05:58:01.748Z,5.47
2023-05-09T06:00:30.004Z,3.80
2023-05-09T06:02:57.984Z,3.88
2023-05-09T06:05:25.875Z,6.18
2023-05-09T06:07:53.783Z,4.72
2023-05-09T06:10:21.730Z,4.72
2023-05-09T06:12:49.738Z,5.45
2023-05-09T06:15:19.126Z,5.38
2023-05-09T06:17:47.156Z,4.95
2023-05-09T06:20:15.045Z,6.03
2023-05-09T06:22:42.882Z,7.65
2023-05-09T06:25:11.005Z,6.93
2023-05-09T06:27:39.053Z,8.77
2023-05-09T06:30:23.669Z,6.43
2023-05-09T06:32:54.607Z,5.78
2023-05-09T06:35:22.684Z,8.35
2023-05-09T06:37:50.739Z,5.95
2023-05-09T06:40:18.644Z,8.02
2023-05-09T06:42:46.877Z,4.32
2023-05-09T06:45:14.920Z,6.53
2023-05-09T06:47:43.003Z,4.50
2023-05-09T06:50:12.627Z,3.80
2023-05-09T06:52:40.798Z,6.20
2023-05-09T06:55:10.634Z,5.50
2023-05-09T06:57:39.538Z,5.15
2023-05-09T07:00:09.926Z,6.55
2023-05-09T07:02:41.747Z,6.03
2023-05-09T07:05:10.781Z,5.40
2023-05-09T07:07:40.827Z,3.00
2023-05-09T07:10:11.861Z,4.25
2023-05-09T07:12:40.715Z,3.22
2023-05-09T07:15:09.955Z,4.32
2023-05-09T07:17:37.813Z,2.95
2023-05-09T07:20:07.225Z,3.30
2023-05-09T07:22:37.285Z,3.35
2023-05-09T07:25:08.825Z,4.97
2023-05-09T07:27:37.194Z,2.75
2023-05-09T07:30:05.393Z,3.50
2023-05-09T07:32:33.440Z,2.33
2023-05-09T07:35:01.516Z,4.47
2023-05-09T07:37:29.426Z,2.80
2023-05-09T07:39:57.296Z,6.97
2023-05-09T07:42:26.526Z,3.42
2023-05-09T07:44:54.494Z,1.88
2023-05-09T07:47:22.374Z,4.28
2023-05-09T07:49:50.251Z,1.92
2023-05-09T07:52:18.261Z,1.40
2023-05-09T07:54:46.317Z,3.15
2023-05-09T07:57:14.209Z,1.73
2023-05-09T07:59:43.618Z,1.40
2023-05-09T08:02:13.710Z,3.55
2023-05-09T08:04:42.322Z,1.73
2023-05-09T08:07:11.961Z,1.42
2023-05-09T08:09:39.965Z,2.92
2023-05-09T08:12:08.499Z,4.07
2023-05-09T08:14:36.453Z,2.15
2023-05-09T08:17:05.716Z,5.70
2023-05-09T08:19:33.532Z,2.35
2023-05-09T08:22:01.527Z,2.78
2023-05-09T08:24:37.291Z,2.20
2023-05-09T08:27:05.197Z,1.65
2023-05-09T08:29:33.344Z,1.60
2023-05-09T08:32:01.237Z,3.03
2023-05-09T08:34:29.029Z,2.33
2023-05-09T08:36:56.841Z,1.92
2023-05-09T08:39:24.708Z,3.38
2023-05-09T08:41:57.488Z,2.85
2023-05-09T08:44:25.420Z,2.40
2023-05-09T08:46:56.274Z,2.83
2023-05-09T08:49:24.895Z,1.77
2023-05-09T08:51:53.490Z,1.17
2023-05-09T08:54:22.980Z,3.20
2023-05-09T08:56:51.622Z,2.00
2023-05-09T08:59:20.927Z,1.77
2023-05-09T09:01:49.232Z,1.80
2023-05-09T09:04:17.377Z,4.30
2023-05-09T09:06:46.097Z,2.15
2023-05-09T09:09:16.496Z,5.97
2023-05-09T09:11:45.839Z,1.50
2023-05-09T09:14:16.715Z,1.73
2023-05-09T09:16:48.786Z,1.50
2023-05-09T09:19:19.603Z,1.65
2023-05-09T09:21:48.406Z,4.05
2023-05-09T09:24:24.533Z,2.50
2023-05-09T09:26:52.894Z,5.47
2023-05-09T09:29:23.127Z,2.20
2023-05-09T09:31:56.260Z,2.88
2023-05-09T09:34:24.880Z,2.50
2023-05-09T09:36:54.966Z,3.58
2023-05-09T09:39:23.316Z,1.30
2023-05-09T09:41:51.300Z,3.42
2023-05-09T09:44:21.025Z,4.78
2023-05-09T09:46:50.773Z,2.20
2023-05-09T09:49:21.843Z,5.70
2023-05-09T09:51:54.134Z,1.83
2023-05-09T09:54:23.137Z,4.53
2023-05-09T09:56:54.488Z,1.70
2023-05-09T09:59:25.113Z,2.00
2023-05-09T10:01:57.790Z,1.35
2023-05-09T10:04:30.525Z,1.70
2023-05-09T10:06:59.710Z,2.22
2023-05-09T10:09:28.840Z,2.25
2023-05-09T10:11:58.588Z,5.22
2023-05-09T10:14:27.562Z,1.85
2023-05-09T10:16:57.799Z,1.60
2023-05-09T10:19:29.811Z,2.95
2023-05-09T10:22:00.603Z,1.88
2023-05-09T10:24:30.940Z,1.65
2023-05-09T10:27:05.316Z,3.15
2023-05-09T10:29:38.760Z,2.00
2023-05-09T10:32:21.669Z,2.20
2023-05-09T10:34:55.804Z,3.67
2023-05-09T10:37:24.499Z,3.92
2023-05-09T10:39:53.950Z,3.20
2023-05-09T10:42:23.901Z,1.35
2023-05-09T10:44:53.198Z,5.13
2023-05-09T10:47:21.650Z,3.20
2023-05-09T10:49:52.016Z,4.78
2023-05-09T10:52:22.617Z,3.47
2023-05-09T10:55:01.073Z,1.90
2023-05-09T10:57:30.617Z,3.38
2023-05-09T11:00:00.628Z,1.63
2023-05-09T11:02:31.101Z,3.78
2023-05-09T11:05:16.945Z,1.77
2023-05-09T11:07:45.144Z,1.83
2023-05-09T11:10:18.084Z,2.47
2023-05-09T11:12:58.254Z,3.55
2023-05-09T11:15:27.711Z,1.70
2023-05-09T11:18:07.012Z,1.63
2023-05-09T11:20:37.068Z,1.42
2023-05-09T11:23:06.959Z,1.75
2023-05-09T11:25:35.010Z,2.75
2023-05-09T11:28:03.426Z,3.17
2023-05-09T11:30:40.793Z,2.70
2023-05-09T11:33:23.645Z,3.33
2023-05-09T11:36:20.762Z,2.75
2023-05-09T11:38:49.316Z,5.00
2023-05-09T11:41:17.425Z,1.50
2023-05-09T11:43:46.158Z,2.42
2023-05-09T11:46:14.072Z,3.40
2023-05-09T11:48:42.942Z,2.15
2023-05-09T11:51:18.337Z,1.65
2023-05-09T11:53:51.524Z,1.98
2023-05-09T11:56:19.552Z,2.97
2023-05-09T11:58:47.450Z,1.67
2023-05-09T12:01:15.331Z,3.28
2023-05-09T12:03:45.250Z,3.75
2023-05-09T12:06:17.416Z,2.20
2023-05-09T12:08:47.356Z,2.75
2023-05-09T12:11:18.220Z,1.75
2023-05-09T12:13:48.570Z,2.15
2023-05-09T12:16:17.320Z,4.38
2023-05-09T12:18:47.144Z,4.05
2023-05-09T12:21:15.470Z,4.82
2023-05-09T12:23:43.600Z,2.47
2023-05-09T12:26:13.021Z,2.35
2023-05-09T12:28:41.932Z,3.65
2023-05-09T12:31:10.182Z,1.83
2023-05-09T12:33:39.504Z,1.50
2023-05-09T12:36:10.310Z,1.52
2023-05-09T12:38:38.833Z,3.58
2023-05-09T12:41:18.207Z,3.30
2023-05-09T12:43:52.451Z,1.75
2023-05-09T12:46:21.213Z,2.88
2023-05-09T12:48:49.772Z,2.03
2023-05-09T12:51:20.574Z,2.15
2023-05-09T12:53:49.442Z,2.50
2023-05-09T12:56:19.567Z,1.38
2023-05-09T12:59:01.129Z,2.83
2023-05-09T13:01:31.023Z,3.42
2023-05-09T13:04:04.230Z,4.00
2023-05-09T13:06:32.471Z,1.92
2023-05-09T13:09:02.501Z,5.20
2023-05-09T13:11:30.813Z,2.25
2023-05-09T13:14:00.243Z,1.58
2023-05-09T13:16:28.428Z,2.35
2023-05-09T13:18:56.725Z,3.13
2023-05-09T13:21:24.593Z,5.93
2023-05-09T13:23:52.503Z,4.28
2023-05-09T13:26:21.237Z,2.67
2023-05-09T13:28:49.216Z,1.70
2023-05-09T13:31:19.289Z,1.70
2023-05-09T13:33:48.703Z,2.80
2023-05-09T13:36:19.070Z,3.20
2023-05-09T13:38:47.174Z,3.38
2023-05-09T13:41:20.174Z,3.10
2023-05-09T13:43:48.581Z,1.58
2023-05-09T13:46:17.962Z,2.10
2023-05-09T13:48:47.748Z,2.22
2023-05-09T13:51:15.977Z,1.85
2023-05-09T13:53:44.059Z,2.60
2023-05-09T13:56:11.957Z,2.65
2023-05-09T13:58:40.254Z,2.45
2023-05-09T14:01:08.255Z,4.85
2023-05-09T14:03:37.881Z,4.90
2023-05-09T14:06:06.019Z,2.00
2023-05-09T14:08:34.684Z,4.88
2023-05-09T14:11:02.974Z,1.48
2023-05-09T14:13:32.163Z,1.58
2023-05-09T14:16:00.252Z,8.20
2023-05-09T14:18:28.359Z,1.73
2023-05-09T14:20:58.395Z,2.95
2023-05-09T14:23:26.475Z,1.42
2023-05-09T14:25:54.570Z,3.17
2023-05-09T14:28:22.527Z,2.13
2023-05-09T14:30:50.965Z,6.28
2023-05-09T14:33:18.991Z,2.65
2023-05-09T14:35:47.572Z,2.97
2023-05-09T14:38:16.943Z,2.60
2023-05-09T14:40:44.882Z,2.47
2023-05-09T14:43:12.876Z,2.13
2023-05-09T14:45:40.850Z,2.40
2023-05-09T14:48:08.728Z,2.75
2023-05-09T14:50:36.627Z,1.95
2023-05-09T14:53:05.001Z,3.08
2023-05-09T14:55:34.347Z,3.70
2023-05-09T14:58:02.724Z,2.47
2023-05-09T15:00:30.956Z,3.58
2023-05-09T15:02:58.947Z,2.75
2023-05-09T15:05:27.084Z,2.45
2023-05-09T15:07:54.991Z,3.40
2023-05-09T15:10:22.962Z,2.53
2023-05-09T15:12:52.245Z,4.78
2023-05-09T15:15:21.671Z,2.80
2023-05-09T15:17:49.978Z,3.60
2023-05-09T15:20:19.288Z,2.25
2023-05-09T15:22:48.604Z,2.97
2023-05-09T15:25:16.883Z,2.33
2023-05-09T15:27:44.815Z,6.63
2023-05-09T15:30:15.482Z,2.05
2023-05-09T15:32:43.666Z,4.53
2023-05-09T15:35:11.907Z,3.10
2023-05-09T15:37:41.248Z,3.83
2023-05-09T15:40:10.229Z,3.10
2023-05-09T15:42:39.702Z,2.55
2023-05-09T15:45:09.028Z,2.35
2023-05-09T15:47:38.711Z,2.65
2023-05-09T15:50:08.386Z,1.77
2023-05-09T15:52:36.538Z,2.13
2023-05-09T15:55:04.555Z,2.65
2023-05-09T15:57:32.711Z,2.60
2023-05-09T16:00:00.940Z,2.03
2023-05-09T16:02:29.148Z,2.63
2023-05-09T16:05:01.409Z,2.33
2023-05-09T16:07:29.443Z,2.40
2023-05-09T16:09:57.398Z,4.47
2023-05-09T16:12:25.449Z,2.53
2023-05-09T16:14:53.292Z,2.38
2023-05-09T16:17:21.629Z,3.25
2023-05-09T16:19:49.593Z,4.15
2023-05-09T16:22:19.470Z,2.92
2023-05-09T16:24:49.301Z,3.55
2023-05-09T16:27:17.868Z,2.97
2023-05-09T16:29:46.604Z,3.45
2023-05-09T16:32:14.695Z,4.15
2023-05-09T16:34:42.597Z,3.03
2023-05-09T16:37:10.457Z,2.85
2023-05-09T16:39:39.724Z,2.72
2023-05-09T16:42:07.638Z,2.47
2023-05-09T16:44:37.903Z,2.88
2023-05-09T16:47:05.928Z,1.90
2023-05-09T16:49:33.925Z,3.00
2023-05-09T16:52:01.825Z,2.92
2023-05-09T16:54:29.693Z,5.45
2023-05-09T16:56:58.953Z,8.13
2023-05-09T16:59:26.958Z,2.03
2023-05-09T17:01:57.587Z,3.17
2023-05-09T17:04:26.022Z,2.33
2023-05-09T17:06:53.974Z,3.15
2023-05-09T17:09:22.414Z,1.70
2023-05-09T17:11:50.354Z,1.70
2023-05-09T17:14:19.916Z,8.20
2023-05-09T17:16:47.845Z,4.47
2023-05-09T17:19:16.531Z,2.67
2023-05-09T17:21:44.437Z,3.13
2023-05-09T17:24:13.938Z,2.03
2023-05-09T17:26:41.829Z,1.80
2023-05-09T17:29:09.697Z,1.98
2023-05-09T17:31:39.292Z,2.08
2023-05-09T17:34:07.164Z,2.53
2023-05-09T17:36:35.496Z,2.17
2023-05-09T17:39:03.800Z,5.30
2023-05-09T17:41:31.827Z,2.67
2023-05-09T17:43:59.649Z,3.63
2023-05-09T17:46:28.061Z,6.28
2023-05-09T17:48:57.739Z,3.65
2023-05-09T17:51:25.788Z,3.13
2023-05-09T17:53:53.966Z,2.83
2023-05-09T17:56:22.437Z,2.42
2023-05-09T17:58:53.009Z,3.08
2023-05-09T18:01:21.479Z,6.72
2023-05-09T18:03:49.988Z,3.00
2023-05-09T18:06:19.873Z,3.55
2023-05-09T18:08:48.452Z,2.35
2023-05-09T18:11:16.455Z,4.57
2023-05-09T18:13:44.834Z,2.63
2023-05-09T18:16:12.892Z,4.82
2023-05-09T18:18:40.964Z,3.15
2023-05-09T18:21:09.704Z,5.10
2023-05-09T18:23:41.848Z,4.32
2023-05-09T18:26:10.231Z,2.80
2023-05-09T18:28:40.302Z,2.45
2023-05-09T18:31:11.870Z,3.63
2023-05-09T18:33:40.438Z,7.70
2023-05-09T18:36:11.273Z,3.55
2023-05-09T18:38:43.537Z,3.97
2023-05-09T18:41:13.004Z,3.65
2023-05-09T18:43:46.049Z,3.53
2023-05-09T18:46:17.252Z,4.72
2023-05-09T18:48:45.927Z,5.40
2023-05-09T18:51:13.862Z,4.80
2023-05-09T18:53:43.294Z,4.20
2023-05-09T18:56:11.916Z,4.03
2023-05-09T18:58:39.987Z,4.72
2023-05-09T19:01:11.960Z,4.88
2023-05-09T19:03:43.858Z,5.05
2023-05-09T19:06:13.091Z,6.90
2023-05-09T19:08:43.139Z,5.50
2023-05-09T19:11:11.676Z,3.67
2023-05-09T19:13:48.470Z,3.63
2023-05-09T19:16:19.851Z,5.22
2023-05-09T19:18:47.816Z,3.83
2023-05-09T19:21:18.752Z,4.77
2023-05-09T19:23:49.309Z,4.00
2023-05-09T19:26:17.472Z,4.20
2023-05-09T19:28:46.294Z,6.20
2023-05-09T19:31:18.551Z,5.20
2023-05-09T19:33:48.083Z,4.87
2023-05-09T19:36:15.987Z,3.77
2023-05-09T19:38:44.039Z,4.70
2023-05-09T19:41:14.084Z,4.00
2023-05-09T19:43:42.284Z,5.67
2023-05-09T19:46:12.219Z,5.57
2023-05-09T19:48:41.079Z,3.45
2023-05-09T19:51:12.337Z,3.80
2023-05-09T19:53:41.163Z,6.50
2023-05-09T19:56:10.327Z,4.32
2023-05-09T19:58:39.997Z,4.10
2023-05-09T20:01:08.700Z,5.67
2023-05-09T20:03:37.268Z,4.53
2023-05-09T20:06:05.828Z,10.77
2023-05-09T20:08:34.008Z,6.33
2023-05-09T20:11:01.928Z,4.83
2023-05-09T20:13:29.748Z,7.77
2023-05-09T20:16:00.284Z,6.87
2023-05-09T20:18:28.519Z,5.05
2023-05-09T20:20:56.496Z,6.90
2023-05-09T20:23:24.362Z,4.67
2023-05-09T20:25:52.329Z,18.70
2023-05-09T20:28:21.998Z,6.00
2023-05-09T20:30:50.432Z,7.20
2023-05-09T20:33:20.396Z,5.27
2023-05-09T20:35:49.263Z,4.55
2023-05-09T20:38:17.326Z,7.23
2023-05-09T20:40:45.242Z,5.10
2023-05-09T20:43:16.437Z,7.87
2023-05-09T20:45:44.811Z,5.60
2023-05-09T20:48:13.182Z,6.20
2023-05-09T20:50:42.646Z,5.35
2023-05-09T20:53:11.872Z,6.70
2023-05-09T20:55:39.765Z,5.13
2023-05-09T20:58:07.789Z,7.50
2023-05-09T21:00:35.751Z,10.97
2023-05-09T21:03:03.939Z,9.97
2023-05-09T21:05:31.934Z,12.77
2023-05-09T21:08:01.194Z,11.83
2023-05-09T21:10:29.014Z,8.43
2023-05-09T21:12:56.943Z,9.93
2023-05-09T21:15:24.818Z,11.43
2023-05-09T21:17:52.705Z,8.03
2023-05-09T21:20:20.612Z,5.60
2023-05-09T21:22:48.454Z,8.90
2023-05-09T21:25:18.186Z,7.83
2023-05-09T21:27:46.392Z,6.23
2023-05-09T21:30:14.739Z,5.33
2023-05-09T21:32:42.992Z,5.23
2023-05-09T21:35:13.349Z,6.20
2023-05-09T21:37:41.471Z,9.00
2023-05-09T21:40:10.605Z,7.50
2023-05-09T21:42:41.196Z,7.77
2023-05-09T21:45:10.299Z,5.17
2023-05-09T21:47:39.713Z,5.47
2023-05-09T21:50:08.748Z,6.17
2023-05-09T21:52:36.573Z,5.33
2023-05-09T21:55:04.699Z,6.80
2023-05-09T21:57:32.715Z,6.07
2023-05-09T22:00:02.215Z,6.03
2023-05-09T22:02:30.396Z,5.47
2023-05-09T22:04:58.424Z,8.43
2023-05-09T22:07:26.720Z,6.23
2023-05-09T22:09:54.817Z,6.87
2023-05-09T22:12:23.128Z,6.67
2023-05-09T22:14:56.360Z,5.23
2023-05-09T22:17:26.446Z,4.77
2023-05-09T22:19:54.380Z,6.70
2023-05-09T22:22:22.676Z,7.90
2023-05-09T22:24:50.535Z,4.43
2023-05-09T22:27:18.773Z,7.10
2023-05-09T22:29:47.093Z,7.80
2023-05-09T22:32:16.653Z,7.57
2023-05-09T22:34:47.827Z,6.03
2023-05-09T22:37:16.067Z,5.80
2023-05-09T22:39:43.905Z,10.10
2023-05-09T22:42:11.963Z,6.43
2023-05-09T22:44:40.297Z,5.87
2023-05-09T22:47:09.155Z,7.33
2023-05-09T22:49:37.493Z,7.80
2023-05-09T22:52:06.910Z,6.33
2023-05-09T22:54:35.442Z,7.90
2023-05-09T22:57:03.481Z,7.97
2023-05-09T22:59:32.094Z,6.27
2023-05-09T23:02:00.204Z,7.23
2023-05-09T23:04:32.182Z,7.73
2023-05-09T23:07:00.023Z,5.87
2023-05-09T23:09:29.525Z,6.40
2023-05-09T23:11:57.877Z,4.87
2023-05-09T23:14:25.723Z,3.90
2023-05-09T23:16:53.625Z,8.83
2023-05-09T23:19:21.636Z,8.33
2023-05-09T23:21:49.672Z,5.83
2023-05-09T23:24:17.612Z,7.03
2023-05-09T23:26:46.808Z,7.40
2023-05-09T23:29:15.115Z,5.20
2023-05-09T23:31:43.076Z,5.77
2023-05-09T23:34:10.975Z,4.27
2023-05-09T23:36:38.793Z,5.67
2023-05-09T23:39:06.676Z,6.77
2023-05-09T23:41:34.540Z,6.27
2023-05-09T23:44:04.151Z,6.47
2023-05-09T23:46:32.236Z,7.97
2023-05-09T23:49:00.312Z,7.83
2023-05-09T23:51:28.348Z,4.80
2023-05-09T23:53:56.184Z,7.40
2023-05-09T23:56:25.314Z,6.93
2023-05-09T23:58:53.264Z,6.50
